sensor_id;sensor_type;location;lat;lon;timestamp;P1;durP1;ratioP1;P2;durP2;ratioP2
77678;SDS011;66835;49.478;10.724;2023-01-26T00:01:19;17.40;;;8.43;;
77678;SDS011;66835;49.478;10.724;2023-01-26T00:03:46;16.73;;;8.25;;
77678;SDS011;66835;49.478;10.724;2023-01-26T00:06:12;20.05;;;10.48;;
77678;SDS011;66835;49.478;10.724;2023-01-26T00:08:39;17.58;;;8.20;;
77678;SDS011;66835;49.478;10.724;2023-01-26T00:11:06;19.08;;;9.10;;
77678;SDS011;66835;49.478;10.724;2023-01-26T00:13:32;18.05;;;9.13;;
77678;SDS011;66835;49.478;10.724;2023-01-26T00:16:00;18.48;;;8.35;;
77678;SDS011;66835;49.478;10.724;2023-01-26T00:18:25;16.40;;;8.05;;
77678;SDS011;66835;49.478;10.724;2023-01-26T00:20:53;13.43;;;7.28;;
77678;SDS011;66835;49.478;10.724;2023-01-26T00:23:19;12.43;;;6.72;;
77678;SDS011;66835;49.478;10.724;2023-01-26T00:25:44;15.10;;;6.53;;
77678;SDS011;66835;49.478;10.724;2023-01-26T00:28:10;13.63;;;7.50;;
77678;SDS011;66835;49.478;10.724;2023-01-26T00:30:35;13.33;;;6.83;;
77678;SDS011;66835;49.478;10.724;2023-01-26T00:33:02;14.87;;;8.03;;
77678;SDS011;66835;49.478;10.724;2023-01-26T00:35:27;15.07;;;7.10;;
77678;SDS011;66835;49.478;10.724;2023-01-26T00:37:53;12.00;;;6.10;;
77678;SDS011;66835;49.478;10.724;2023-01-26T00:40:18;12.40;;;6.65;;
77678;SDS011;66835;49.478;10.724;2023-01-26T00:42:44;15.52;;;9.20;;
77678;SDS011;66835;49.478;10.724;2023-01-26T00:45:09;12.38;;;6.75;;
77678;SDS011;66835;49.478;10.724;2023-01-26T00:47:35;15.73;;;7.35;;
77678;SDS011;66835;49.478;10.724;2023-01-26T00:50:02;14.83;;;7.17;;
77678;SDS011;66835;49.478;10.724;2023-01-26T00:52:28;15.85;;;7.13;;
77678;SDS011;66835;49.478;10.724;2023-01-26T00:54:53;15.60;;;7.40;;
77678;SDS011;66835;49.478;10.724;2023-01-26T00:57:18;18.67;;;8.43;;
77678;SDS011;66835;49.478;10.724;2023-01-26T00:59:44;12.97;;;6.73;;
77678;SDS011;66835;49.478;10.724;2023-01-26T01:02:10;14.80;;;8.15;;
77678;SDS011;66835;49.478;10.724;2023-01-26T01:04:35;15.77;;;7.85;;
77678;SDS011;66835;49.478;10.724;2023-01-26T01:07:02;12.93;;;6.57;;
77678;SDS011;66835;49.478;10.724;2023-01-26T01:09:28;14.45;;;7.35;;
77678;SDS011;66835;49.478;10.724;2023-01-26T01:11:53;15.95;;;7.40;;
77678;SDS011;66835;49.478;10.724;2023-01-26T01:14:19;15.93;;;6.93;;
77678;SDS011;66835;49.478;10.724;2023-01-26T01:16:45;15.75;;;7.68;;
77678;SDS011;66835;49.478;10.724;2023-01-26T01:19:12;15.30;;;7.22;;
77678;SDS011;66835;49.478;10.724;2023-01-26T01:21:38;15.20;;;7.00;;
77678;SDS011;66835;49.478;10.724;2023-01-26T01:24:05;14.98;;;7.32;;
77678;SDS011;66835;49.478;10.724;2023-01-26T01:26:31;15.43;;;7.10;;
77678;SDS011;66835;49.478;10.724;2023-01-26T01:28:57;15.30;;;7.97;;
77678;SDS011;66835;49.478;10.724;2023-01-26T01:31:22;14.00;;;8.40;;
77678;SDS011;66835;49.478;10.724;2023-01-26T01:33:49;13.30;;;7.03;;
77678;SDS011;66835;49.478;10.724;2023-01-26T01:36:15;18.90;;;9.32;;
77678;SDS011;66835;49.478;10.724;2023-01-26T01:38:41;16.58;;;7.35;;
77678;SDS011;66835;49.478;10.724;2023-01-26T01:41:08;18.02;;;8.38;;
77678;SDS011;66835;49.478;10.724;2023-01-26T01:43:34;14.77;;;7.32;;
77678;SDS011;66835;49.478;10.724;2023-01-26T01:45:59;13.98;;;8.07;;
77678;SDS011;66835;49.478;10.724;2023-01-26T01:48:26;16.55;;;8.60;;
77678;SDS011;66835;49.478;10.724;2023-01-26T01:50:56;14.60;;;8.48;;
77678;SDS011;66835;49.478;10.724;2023-01-26T01:53:25;13.13;;;7.32;;
77678;SDS011;66835;49.478;10.724;2023-01-26T01:55:52;13.73;;;7.60;;
77678;SDS011;66835;49.478;10.724;2023-01-26T01:58:22;13.38;;;6.50;;
77678;SDS011;66835;49.478;10.724;2023-01-26T02:00:47;12.73;;;6.88;;
77678;SDS011;66835;49.478;10.724;2023-01-26T02:03:13;11.77;;;5.95;;
77678;SDS011;66835;49.478;10.724;2023-01-26T02:05:51;11.32;;;6.18;;
77678;SDS011;66835;49.478;10.724;2023-01-26T02:08:20;11.63;;;5.65;;
77678;SDS011;66835;49.478;10.724;2023-01-26T02:10:47;10.05;;;6.30;;
77678;SDS011;66835;49.478;10.724;2023-01-26T02:13:13;9.13;;;5.10;;
77678;SDS011;66835;49.478;10.724;2023-01-26T02:15:41;7.90;;;4.88;;
77678;SDS011;66835;49.478;10.724;2023-01-26T02:18:06;9.57;;;5.78;;
77678;SDS011;66835;49.478;10.724;2023-01-26T02:20:35;9.43;;;5.03;;
77678;SDS011;66835;49.478;10.724;2023-01-26T02:23:09;9.85;;;5.95;;
77678;SDS011;66835;49.478;10.724;2023-01-26T02:25:42;9.48;;;5.43;;
77678;SDS011;66835;49.478;10.724;2023-01-26T02:28:11;8.32;;;4.13;;
77678;SDS011;66835;49.478;10.724;2023-01-26T02:30:36;8.45;;;5.45;;
77678;SDS011;66835;49.478;10.724;2023-01-26T02:33:02;7.70;;;5.07;;
77678;SDS011;66835;49.478;10.724;2023-01-26T02:35:28;9.52;;;5.45;;
77678;SDS011;66835;49.478;10.724;2023-01-26T02:37:53;7.43;;;4.07;;
77678;SDS011;66835;49.478;10.724;2023-01-26T02:40:20;6.80;;;4.33;;
77678;SDS011;66835;49.478;10.724;2023-01-26T02:42:50;6.43;;;3.63;;
77678;SDS011;66835;49.478;10.724;2023-01-26T02:45:20;8.25;;;4.70;;
77678;SDS011;66835;49.478;10.724;2023-01-26T02:47:46;7.70;;;4.57;;
77678;SDS011;66835;49.478;10.724;2023-01-26T02:50:12;7.97;;;4.63;;
77678;SDS011;66835;49.478;10.724;2023-01-26T02:52:37;6.72;;;4.22;;
77678;SDS011;66835;49.478;10.724;2023-01-26T02:55:03;8.98;;;4.82;;
77678;SDS011;66835;49.478;10.724;2023-01-26T02:57:49;9.00;;;5.15;;
77678;SDS011;66835;49.478;10.724;2023-01-26T03:00:15;8.48;;;5.00;;
77678;SDS011;66835;49.478;10.724;2023-01-26T03:02:43;8.18;;;5.13;;
77678;SDS011;66835;49.478;10.724;2023-01-26T03:05:11;9.40;;;5.47;;
77678;SDS011;66835;49.478;10.724;2023-01-26T03:07:36;8.20;;;4.57;;
77678;SDS011;66835;49.478;10.724;2023-01-26T03:10:02;9.48;;;5.70;;
77678;SDS011;66835;49.478;10.724;2023-01-26T03:12:28;8.55;;;5.25;;
77678;SDS011;66835;49.478;10.724;2023-01-26T03:14:53;8.55;;;5.07;;
77678;SDS011;66835;49.478;10.724;2023-01-26T03:17:38;8.30;;;5.22;;
77678;SDS011;66835;49.478;10.724;2023-01-26T03:20:06;8.37;;;4.87;;
77678;SDS011;66835;49.478;10.724;2023-01-26T03:22:51;8.40;;;5.05;;
77678;SDS011;66835;49.478;10.724;2023-01-26T03:25:36;7.07;;;4.78;;
77678;SDS011;66835;49.478;10.724;2023-01-26T03:28:20;8.77;;;5.28;;
77678;SDS011;66835;49.478;10.724;2023-01-26T03:30:46;8.57;;;4.53;;
77678;SDS011;66835;49.478;10.724;2023-01-26T03:33:11;7.88;;;4.85;;
77678;SDS011;66835;49.478;10.724;2023-01-26T03:35:38;8.73;;;5.30;;
77678;SDS011;66835;49.478;10.724;2023-01-26T03:38:03;7.35;;;4.85;;
77678;SDS011;66835;49.478;10.724;2023-01-26T03:40:29;7.33;;;4.27;;
77678;SDS011;66835;49.478;10.724;2023-01-26T03:43:13;6.38;;;3.45;;
77678;SDS011;66835;49.478;10.724;2023-01-26T03:45:57;6.35;;;3.92;;
77678;SDS011;66835;49.478;10.724;2023-01-26T03:48:41;6.45;;;4.75;;
77678;SDS011;66835;49.478;10.724;2023-01-26T03:51:26;5.90;;;3.45;;
77678;SDS011;66835;49.478;10.724;2023-01-26T03:54:10;7.10;;;4.82;;
77678;SDS011;66835;49.478;10.724;2023-01-26T03:56:54;7.85;;;4.18;;
77678;SDS011;66835;49.478;10.724;2023-01-26T03:59:19;6.07;;;3.80;;
77678;SDS011;66835;49.478;10.724;2023-01-26T04:02:02;6.65;;;3.83;;
77678;SDS011;66835;49.478;10.724;2023-01-26T04:04:46;5.93;;;3.83;;
77678;SDS011;66835;49.478;10.724;2023-01-26T04:07:31;6.85;;;4.00;;
77678;SDS011;66835;49.478;10.724;2023-01-26T04:10:15;6.07;;;3.72;;
77678;SDS011;66835;49.478;10.724;2023-01-26T04:12:41;6.57;;;4.00;;
77678;SDS011;66835;49.478;10.724;2023-01-26T04:15:06;5.80;;;3.72;;
77678;SDS011;66835;49.478;10.724;2023-01-26T04:17:51;6.03;;;3.38;;
77678;SDS011;66835;49.478;10.724;2023-01-26T04:20:35;7.05;;;3.58;;
77678;SDS011;66835;49.478;10.724;2023-01-26T04:23:20;5.90;;;3.40;;
77678;SDS011;66835;49.478;10.724;2023-01-26T04:25:46;5.10;;;2.75;;
77678;SDS011;66835;49.478;10.724;2023-01-26T04:28:11;5.13;;;3.08;;
77678;SDS011;66835;49.478;10.724;2023-01-26T04:30:37;5.73;;;3.70;;
77678;SDS011;66835;49.478;10.724;2023-01-26T04:33:03;6.35;;;3.42;;
77678;SDS011;66835;49.478;10.724;2023-01-26T04:35:28;5.88;;;3.35;;
77678;SDS011;66835;49.478;10.724;2023-01-26T04:37:54;5.13;;;3.20;;
77678;SDS011;66835;49.478;10.724;2023-01-26T04:40:20;5.43;;;3.30;;
77678;SDS011;66835;49.478;10.724;2023-01-26T04:42:46;5.38;;;3.28;;
77678;SDS011;66835;49.478;10.724;2023-01-26T04:45:11;6.70;;;3.47;;
77678;SDS011;66835;49.478;10.724;2023-01-26T04:47:36;6.15;;;3.78;;
77678;SDS011;66835;49.478;10.724;2023-01-26T04:50:02;6.27;;;4.37;;
77678;SDS011;66835;49.478;10.724;2023-01-26T04:52:28;6.72;;;3.83;;
77678;SDS011;66835;49.478;10.724;2023-01-26T04:54:53;6.13;;;3.85;;
77678;SDS011;66835;49.478;10.724;2023-01-26T04:57:20;5.97;;;3.42;;
77678;SDS011;66835;49.478;10.724;2023-01-26T04:59:47;6.25;;;3.78;;
77678;SDS011;66835;49.478;10.724;2023-01-26T05:02:12;5.72;;;3.30;;
77678;SDS011;66835;49.478;10.724;2023-01-26T05:04:38;6.25;;;3.85;;
77678;SDS011;66835;49.478;10.724;2023-01-26T05:07:03;6.18;;;3.55;;
77678;SDS011;66835;49.478;10.724;2023-01-26T05:09:28;6.28;;;3.85;;
77678;SDS011;66835;49.478;10.724;2023-01-26T05:11:54;6.03;;;3.53;;
77678;SDS011;66835;49.478;10.724;2023-01-26T05:14:41;6.03;;;3.60;;
77678;SDS011;66835;49.478;10.724;2023-01-26T05:17:06;5.57;;;3.35;;
77678;SDS011;66835;49.478;10.724;2023-01-26T05:19:31;5.88;;;2.95;;
77678;SDS011;66835;49.478;10.724;2023-01-26T05:21:57;5.50;;;3.07;;
77678;SDS011;66835;49.478;10.724;2023-01-26T05:24:22;5.73;;;3.30;;
77678;SDS011;66835;49.478;10.724;2023-01-26T05:26:47;5.77;;;3.90;;
77678;SDS011;66835;49.478;10.724;2023-01-26T05:29:33;5.82;;;3.42;;
77678;SDS011;66835;49.478;10.724;2023-01-26T05:32:00;5.97;;;3.38;;
77678;SDS011;66835;49.478;10.724;2023-01-26T05:34:26;5.88;;;3.55;;
77678;SDS011;66835;49.478;10.724;2023-01-26T05:36:51;5.85;;;3.88;;
77678;SDS011;66835;49.478;10.724;2023-01-26T05:39:16;6.77;;;3.67;;
77678;SDS011;66835;49.478;10.724;2023-01-26T05:41:42;6.43;;;4.20;;
77678;SDS011;66835;49.478;10.724;2023-01-26T05:44:07;6.50;;;3.70;;
77678;SDS011;66835;49.478;10.724;2023-01-26T05:46:32;5.68;;;3.67;;
77678;SDS011;66835;49.478;10.724;2023-01-26T05:48:59;6.43;;;4.07;;
77678;SDS011;66835;49.478;10.724;2023-01-26T05:51:24;6.43;;;4.53;;
77678;SDS011;66835;49.478;10.724;2023-01-26T05:53:50;6.60;;;4.00;;
77678;SDS011;66835;49.478;10.724;2023-01-26T05:56:15;6.83;;;4.40;;
77678;SDS011;66835;49.478;10.724;2023-01-26T05:58:40;6.53;;;3.80;;
77678;SDS011;66835;49.478;10.724;2023-01-26T06:01:06;6.20;;;4.37;;
77678;SDS011;66835;49.478;10.724;2023-01-26T06:03:32;6.55;;;4.40;;
77678;SDS011;66835;49.478;10.724;2023-01-26T06:05:59;6.60;;;4.03;;
77678;SDS011;66835;49.478;10.724;2023-01-26T06:08:24;6.55;;;4.00;;
77678;SDS011;66835;49.478;10.724;2023-01-26T06:10:50;7.60;;;4.72;;
77678;SDS011;66835;49.478;10.724;2023-01-26T06:13:15;6.97;;;4.05;;
77678;SDS011;66835;49.478;10.724;2023-01-26T06:15:40;5.50;;;3.47;;
77678;SDS011;66835;49.478;10.724;2023-01-26T06:18:06;5.95;;;3.28;;
77678;SDS011;66835;49.478;10.724;2023-01-26T06:20:31;5.57;;;3.63;;
77678;SDS011;66835;49.478;10.724;2023-01-26T06:22:59;5.83;;;3.23;;
77678;SDS011;66835;49.478;10.724;2023-01-26T06:25:25;6.78;;;3.97;;
77678;SDS011;66835;49.478;10.724;2023-01-26T06:27:51;6.05;;;3.40;;
77678;SDS011;66835;49.478;10.724;2023-01-26T06:30:16;6.40;;;4.07;;
77678;SDS011;66835;49.478;10.724;2023-01-26T06:32:42;6.65;;;3.90;;
77678;SDS011;66835;49.478;10.724;2023-01-26T06:35:07;5.23;;;3.40;;
77678;SDS011;66835;49.478;10.724;2023-01-26T06:37:33;5.60;;;3.33;;
77678;SDS011;66835;49.478;10.724;2023-01-26T06:40:00;4.93;;;3.13;;
77678;SDS011;66835;49.478;10.724;2023-01-26T06:42:25;5.90;;;3.33;;
77678;SDS011;66835;49.478;10.724;2023-01-26T06:44:51;5.73;;;3.23;;
77678;SDS011;66835;49.478;10.724;2023-01-26T06:47:16;5.20;;;3.37;;
77678;SDS011;66835;49.478;10.724;2023-01-26T06:49:41;6.03;;;3.77;;
77678;SDS011;66835;49.478;10.724;2023-01-26T06:52:18;4.87;;;3.17;;
77678;SDS011;66835;49.478;10.724;2023-01-26T06:54:47;5.85;;;3.38;;
77678;SDS011;66835;49.478;10.724;2023-01-26T06:57:15;4.88;;;2.60;;
77678;SDS011;66835;49.478;10.724;2023-01-26T06:59:40;5.57;;;3.38;;
77678;SDS011;66835;49.478;10.724;2023-01-26T07:02:08;5.57;;;3.40;;
77678;SDS011;66835;49.478;10.724;2023-01-26T07:04:35;5.25;;;3.25;;
77678;SDS011;66835;49.478;10.724;2023-01-26T07:07:00;5.20;;;3.47;;
77678;SDS011;66835;49.478;10.724;2023-01-26T07:09:26;5.23;;;3.07;;
77678;SDS011;66835;49.478;10.724;2023-01-26T07:11:51;5.80;;;3.17;;
77678;SDS011;66835;49.478;10.724;2023-01-26T07:14:18;5.63;;;3.17;;
77678;SDS011;66835;49.478;10.724;2023-01-26T07:16:43;4.68;;;2.88;;
77678;SDS011;66835;49.478;10.724;2023-01-26T07:19:08;5.30;;;3.20;;
77678;SDS011;66835;49.478;10.724;2023-01-26T07:21:34;5.17;;;3.30;;
77678;SDS011;66835;49.478;10.724;2023-01-26T07:24:00;4.97;;;2.80;;
77678;SDS011;66835;49.478;10.724;2023-01-26T07:26:25;4.35;;;2.70;;
77678;SDS011;66835;49.478;10.724;2023-01-26T07:28:50;5.22;;;3.10;;
77678;SDS011;66835;49.478;10.724;2023-01-26T07:31:17;4.43;;;3.10;;
77678;SDS011;66835;49.478;10.724;2023-01-26T07:33:42;5.25;;;3.33;;
77678;SDS011;66835;49.478;10.724;2023-01-26T07:36:08;5.18;;;3.22;;
77678;SDS011;66835;49.478;10.724;2023-01-26T07:38:35;4.40;;;2.60;;
77678;SDS011;66835;49.478;10.724;2023-01-26T07:41:03;5.00;;;3.38;;
77678;SDS011;66835;49.478;10.724;2023-01-26T07:43:31;4.63;;;2.88;;
77678;SDS011;66835;49.478;10.724;2023-01-26T07:45:57;4.30;;;2.13;;
77678;SDS011;66835;49.478;10.724;2023-01-26T07:48:23;4.70;;;2.80;;
77678;SDS011;66835;49.478;10.724;2023-01-26T07:50:49;4.60;;;2.72;;
77678;SDS011;66835;49.478;10.724;2023-01-26T07:53:15;4.32;;;2.63;;
77678;SDS011;66835;49.478;10.724;2023-01-26T07:55:43;4.90;;;2.70;;
77678;SDS011;66835;49.478;10.724;2023-01-26T07:58:08;5.53;;;2.90;;
77678;SDS011;66835;49.478;10.724;2023-01-26T08:00:34;4.78;;;2.70;;
77678;SDS011;66835;49.478;10.724;2023-01-26T08:02:59;5.05;;;3.33;;
77678;SDS011;66835;49.478;10.724;2023-01-26T08:05:26;4.87;;;3.00;;
77678;SDS011;66835;49.478;10.724;2023-01-26T08:07:51;4.32;;;2.88;;
77678;SDS011;66835;49.478;10.724;2023-01-26T08:10:17;5.90;;;3.77;;
77678;SDS011;66835;49.478;10.724;2023-01-26T08:12:42;5.03;;;3.17;;
77678;SDS011;66835;49.478;10.724;2023-01-26T08:15:08;5.07;;;3.15;;
77678;SDS011;66835;49.478;10.724;2023-01-26T08:17:35;5.03;;;2.70;;
77678;SDS011;66835;49.478;10.724;2023-01-26T08:20:00;5.00;;;2.85;;
77678;SDS011;66835;49.478;10.724;2023-01-26T08:22:27;4.75;;;2.95;;
77678;SDS011;66835;49.478;10.724;2023-01-26T08:24:52;4.97;;;2.83;;
77678;SDS011;66835;49.478;10.724;2023-01-26T08:27:17;5.30;;;2.80;;
77678;SDS011;66835;49.478;10.724;2023-01-26T08:29:43;5.20;;;2.97;;
77678;SDS011;66835;49.478;10.724;2023-01-26T08:32:08;5.82;;;3.60;;
77678;SDS011;66835;49.478;10.724;2023-01-26T08:34:34;5.50;;;3.53;;
77678;SDS011;66835;49.478;10.724;2023-01-26T08:36:59;5.10;;;3.25;;
77678;SDS011;66835;49.478;10.724;2023-01-26T08:39:26;5.50;;;3.50;;
77678;SDS011;66835;49.478;10.724;2023-01-26T08:41:51;5.72;;;3.30;;
77678;SDS011;66835;49.478;10.724;2023-01-26T08:44:16;5.67;;;3.57;;
77678;SDS011;66835;49.478;10.724;2023-01-26T08:46:42;6.28;;;3.47;;
77678;SDS011;66835;49.478;10.724;2023-01-26T08:49:08;5.70;;;3.45;;
77678;SDS011;66835;49.478;10.724;2023-01-26T08:51:33;5.43;;;3.40;;
77678;SDS011;66835;49.478;10.724;2023-01-26T08:53:58;5.37;;;3.70;;
77678;SDS011;66835;49.478;10.724;2023-01-26T08:56:25;6.35;;;4.10;;
77678;SDS011;66835;49.478;10.724;2023-01-26T08:58:50;6.78;;;3.63;;
77678;SDS011;66835;49.478;10.724;2023-01-26T09:01:16;6.27;;;3.83;;
77678;SDS011;66835;49.478;10.724;2023-01-26T09:03:42;6.70;;;3.65;;
77678;SDS011;66835;49.478;10.724;2023-01-26T09:06:08;6.53;;;4.25;;
77678;SDS011;66835;49.478;10.724;2023-01-26T09:08:35;5.82;;;3.63;;
77678;SDS011;66835;49.478;10.724;2023-01-26T09:11:00;5.43;;;3.35;;
77678;SDS011;66835;49.478;10.724;2023-01-26T09:13:27;6.53;;;4.65;;
77678;SDS011;66835;49.478;10.724;2023-01-26T09:15:52;6.60;;;4.82;;
77678;SDS011;66835;49.478;10.724;2023-01-26T09:18:18;8.02;;;4.80;;
77678;SDS011;66835;49.478;10.724;2023-01-26T09:20:43;8.18;;;5.60;;
77678;SDS011;66835;49.478;10.724;2023-01-26T09:23:09;8.20;;;5.10;;
77678;SDS011;66835;49.478;10.724;2023-01-26T09:25:36;7.55;;;4.53;;
77678;SDS011;66835;49.478;10.724;2023-01-26T09:28:02;9.35;;;5.07;;
77678;SDS011;66835;49.478;10.724;2023-01-26T09:30:29;8.45;;;5.05;;
77678;SDS011;66835;49.478;10.724;2023-01-26T09:32:56;9.02;;;4.63;;
77678;SDS011;66835;49.478;10.724;2023-01-26T09:35:22;8.30;;;5.22;;
77678;SDS011;66835;49.478;10.724;2023-01-26T09:37:47;9.27;;;4.73;;
77678;SDS011;66835;49.478;10.724;2023-01-26T09:40:14;7.57;;;5.17;;
77678;SDS011;66835;49.478;10.724;2023-01-26T09:42:43;6.93;;;4.65;;
77678;SDS011;66835;49.478;10.724;2023-01-26T09:45:19;7.10;;;4.72;;
77678;SDS011;66835;49.478;10.724;2023-01-26T09:47:57;6.88;;;4.72;;
77678;SDS011;66835;49.478;10.724;2023-01-26T09:50:32;7.45;;;4.35;;
77678;SDS011;66835;49.478;10.724;2023-01-26T09:53:01;6.55;;;3.92;;
77678;SDS011;66835;49.478;10.724;2023-01-26T09:55:28;6.95;;;4.25;;
77678;SDS011;66835;49.478;10.724;2023-01-26T09:57:56;6.88;;;4.03;;
77678;SDS011;66835;49.478;10.724;2023-01-26T10:00:24;7.85;;;4.50;;
77678;SDS011;66835;49.478;10.724;2023-01-26T10:02:58;7.15;;;3.95;;
77678;SDS011;66835;49.478;10.724;2023-01-26T10:05:29;7.53;;;4.65;;
77678;SDS011;66835;49.478;10.724;2023-01-26T10:07:57;6.80;;;4.25;;
77678;SDS011;66835;49.478;10.724;2023-01-26T10:10:25;6.60;;;4.35;;
77678;SDS011;66835;49.478;10.724;2023-01-26T10:12:53;7.60;;;4.47;;
77678;SDS011;66835;49.478;10.724;2023-01-26T10:15:23;7.40;;;4.22;;
77678;SDS011;66835;49.478;10.724;2023-01-26T10:17:53;6.43;;;4.38;;
77678;SDS011;66835;49.478;10.724;2023-01-26T10:20:23;7.10;;;4.90;;
77678;SDS011;66835;49.478;10.724;2023-01-26T10:22:53;6.68;;;3.70;;
77678;SDS011;66835;49.478;10.724;2023-01-26T10:25:20;8.57;;;4.70;;
77678;SDS011;66835;49.478;10.724;2023-01-26T10:27:47;7.22;;;5.20;;
77678;SDS011;66835;49.478;10.724;2023-01-26T10:30:13;7.45;;;4.97;;
77678;SDS011;66835;49.478;10.724;2023-01-26T10:32:39;7.55;;;4.95;;
77678;SDS011;66835;49.478;10.724;2023-01-26T10:35:07;7.10;;;4.65;;
77678;SDS011;66835;49.478;10.724;2023-01-26T10:37:40;6.25;;;4.60;;
77678;SDS011;66835;49.478;10.724;2023-01-26T10:40:06;7.78;;;4.88;;
77678;SDS011;66835;49.478;10.724;2023-01-26T10:42:34;7.03;;;4.30;;
77678;SDS011;66835;49.478;10.724;2023-01-26T10:45:00;7.47;;;4.88;;
77678;SDS011;66835;49.478;10.724;2023-01-26T10:47:27;6.78;;;4.00;;
77678;SDS011;66835;49.478;10.724;2023-01-26T10:49:53;7.68;;;5.25;;
77678;SDS011;66835;49.478;10.724;2023-01-26T10:52:38;7.95;;;4.82;;
77678;SDS011;66835;49.478;10.724;2023-01-26T10:55:22;7.15;;;3.90;;
77678;SDS011;66835;49.478;10.724;2023-01-26T10:57:48;6.28;;;3.67;;
77678;SDS011;66835;49.478;10.724;2023-01-26T11:00:18;7.10;;;4.72;;
77678;SDS011;66835;49.478;10.724;2023-01-26T11:02:48;7.38;;;4.30;;
77678;SDS011;66835;49.478;10.724;2023-01-26T11:05:17;6.53;;;3.80;;
77678;SDS011;66835;49.478;10.724;2023-01-26T11:07:45;6.53;;;3.88;;
77678;SDS011;66835;49.478;10.724;2023-01-26T11:10:21;6.85;;;4.15;;
77678;SDS011;66835;49.478;10.724;2023-01-26T11:12:49;6.85;;;4.60;;
77678;SDS011;66835;49.478;10.724;2023-01-26T11:15:15;8.50;;;5.20;;
77678;SDS011;66835;49.478;10.724;2023-01-26T11:17:44;8.60;;;5.57;;
77678;SDS011;66835;49.478;10.724;2023-01-26T11:20:22;8.40;;;5.25;;
77678;SDS011;66835;49.478;10.724;2023-01-26T11:22:58;7.47;;;4.57;;
77678;SDS011;66835;49.478;10.724;2023-01-26T11:25:30;7.90;;;5.25;;
77678;SDS011;66835;49.478;10.724;2023-01-26T11:28:04;8.35;;;4.70;;
77678;SDS011;66835;49.478;10.724;2023-01-26T11:30:42;7.95;;;4.43;;
77678;SDS011;66835;49.478;10.724;2023-01-26T11:33:17;7.90;;;4.45;;
77678;SDS011;66835;49.478;10.724;2023-01-26T11:35:50;7.40;;;4.57;;
77678;SDS011;66835;49.478;10.724;2023-01-26T11:38:26;9.15;;;6.05;;
77678;SDS011;66835;49.478;10.724;2023-01-26T11:40:59;8.02;;;5.13;;
77678;SDS011;66835;49.478;10.724;2023-01-26T11:43:36;8.05;;;4.88;;
77678;SDS011;66835;49.478;10.724;2023-01-26T11:46:20;7.78;;;4.60;;
77678;SDS011;66835;49.478;10.724;2023-01-26T11:48:56;7.80;;;4.65;;
77678;SDS011;66835;49.478;10.724;2023-01-26T11:51:28;7.60;;;5.28;;
77678;SDS011;66835;49.478;10.724;2023-01-26T11:54:02;8.82;;;5.45;;
77678;SDS011;66835;49.478;10.724;2023-01-26T11:56:51;7.80;;;4.97;;
77678;SDS011;66835;49.478;10.724;2023-01-26T11:59:23;6.80;;;4.80;;
77678;SDS011;66835;49.478;10.724;2023-01-26T12:01:52;8.48;;;5.40;;
77678;SDS011;66835;49.478;10.724;2023-01-26T12:04:23;8.13;;;5.43;;
77678;SDS011;66835;49.478;10.724;2023-01-26T12:06:49;7.63;;;5.37;;
77678;SDS011;66835;49.478;10.724;2023-01-26T12:09:19;8.38;;;5.53;;
77678;SDS011;66835;49.478;10.724;2023-01-26T12:11:47;8.35;;;5.22;;
77678;SDS011;66835;49.478;10.724;2023-01-26T12:14:17;7.75;;;5.10;;
77678;SDS011;66835;49.478;10.724;2023-01-26T12:16:50;8.45;;;5.13;;
77678;SDS011;66835;49.478;10.724;2023-01-26T12:19:24;8.30;;;5.50;;
77678;SDS011;66835;49.478;10.724;2023-01-26T12:24:26;8.43;;;5.25;;
77678;SDS011;66835;49.478;10.724;2023-01-26T12:27:00;9.93;;;5.80;;
77678;SDS011;66835;49.478;10.724;2023-01-26T12:29:27;8.85;;;5.53;;
77678;SDS011;66835;49.478;10.724;2023-01-26T12:31:56;8.95;;;5.90;;
77678;SDS011;66835;49.478;10.724;2023-01-26T12:34:25;9.05;;;6.10;;
77678;SDS011;66835;49.478;10.724;2023-01-26T12:36:54;7.57;;;5.38;;
77678;SDS011;66835;49.478;10.724;2023-01-26T12:39:27;9.45;;;6.13;;
77678;SDS011;66835;49.478;10.724;2023-01-26T12:44:44;10.32;;;5.95;;
77678;SDS011;66835;49.478;10.724;2023-01-26T12:47:12;8.13;;;4.70;;
77678;SDS011;66835;49.478;10.724;2023-01-26T12:49:40;7.60;;;5.03;;
77678;SDS011;66835;49.478;10.724;2023-01-26T12:52:10;8.10;;;5.20;;
77678;SDS011;66835;49.478;10.724;2023-01-26T12:54:39;9.23;;;5.55;;
77678;SDS011;66835;49.478;10.724;2023-01-26T12:57:10;9.48;;;5.35;;
77678;SDS011;66835;49.478;10.724;2023-01-26T12:59:39;8.25;;;5.55;;
77678;SDS011;66835;49.478;10.724;2023-01-26T13:02:08;8.95;;;5.22;;
77678;SDS011;66835;49.478;10.724;2023-01-26T13:04:35;7.80;;;4.43;;
77678;SDS011;66835;49.478;10.724;2023-01-26T13:07:01;7.88;;;4.93;;
77678;SDS011;66835;49.478;10.724;2023-01-26T13:09:28;7.97;;;5.55;;
77678;SDS011;66835;49.478;10.724;2023-01-26T13:11:54;7.75;;;4.95;;
77678;SDS011;66835;49.478;10.724;2023-01-26T13:14:24;10.23;;;5.72;;
77678;SDS011;66835;49.478;10.724;2023-01-26T13:16:52;8.68;;;6.03;;
77678;SDS011;66835;49.478;10.724;2023-01-26T13:19:34;10.23;;;6.30;;
77678;SDS011;66835;49.478;10.724;2023-01-26T13:22:00;10.23;;;5.63;;
77678;SDS011;66835;49.478;10.724;2023-01-26T13:24:41;9.80;;;6.13;;
77678;SDS011;66835;49.478;10.724;2023-01-26T13:27:27;9.55;;;5.45;;
77678;SDS011;66835;49.478;10.724;2023-01-26T13:29:53;8.25;;;5.82;;
77678;SDS011;66835;49.478;10.724;2023-01-26T13:35:25;9.13;;;5.78;;
77678;SDS011;66835;49.478;10.724;2023-01-26T13:37:52;9.10;;;5.45;;
77678;SDS011;66835;49.478;10.724;2023-01-26T13:40:22;10.20;;;5.55;;
77678;SDS011;66835;49.478;10.724;2023-01-26T13:42:53;7.68;;;5.43;;
77678;SDS011;66835;49.478;10.724;2023-01-26T13:45:22;9.02;;;6.07;;
77678;SDS011;66835;49.478;10.724;2023-01-26T13:47:54;9.43;;;5.82;;
77678;SDS011;66835;49.478;10.724;2023-01-26T13:50:21;7.40;;;4.82;;
77678;SDS011;66835;49.478;10.724;2023-01-26T13:52:47;9.00;;;5.50;;
77678;SDS011;66835;49.478;10.724;2023-01-26T13:55:18;7.93;;;5.38;;
77678;SDS011;66835;49.478;10.724;2023-01-26T13:57:46;7.80;;;5.32;;
77678;SDS011;66835;49.478;10.724;2023-01-26T14:00:13;9.95;;;6.15;;
77678;SDS011;66835;49.478;10.724;2023-01-26T14:02:39;8.15;;;4.85;;
77678;SDS011;66835;49.478;10.724;2023-01-26T14:05:19;7.47;;;4.93;;
77678;SDS011;66835;49.478;10.724;2023-01-26T14:07:45;8.30;;;4.72;;
77678;SDS011;66835;49.478;10.724;2023-01-26T14:10:14;8.90;;;5.53;;
77678;SDS011;66835;49.478;10.724;2023-01-26T14:12:41;7.07;;;4.93;;
77678;SDS011;66835;49.478;10.724;2023-01-26T14:15:15;9.05;;;5.30;;
77678;SDS011;66835;49.478;10.724;2023-01-26T14:17:47;8.95;;;5.82;;
77678;SDS011;66835;49.478;10.724;2023-01-26T14:20:20;9.00;;;5.43;;
77678;SDS011;66835;49.478;10.724;2023-01-26T14:23:01;8.85;;;5.63;;
77678;SDS011;66835;49.478;10.724;2023-01-26T14:25:27;8.38;;;5.32;;
77678;SDS011;66835;49.478;10.724;2023-01-26T14:27:52;8.50;;;5.55;;
77678;SDS011;66835;49.478;10.724;2023-01-26T14:30:24;9.60;;;5.63;;
77678;SDS011;66835;49.478;10.724;2023-01-26T14:32:53;8.73;;;5.53;;
77678;SDS011;66835;49.478;10.724;2023-01-26T14:35:21;8.25;;;5.15;;
77678;SDS011;66835;49.478;10.724;2023-01-26T14:37:47;8.48;;;5.18;;
77678;SDS011;66835;49.478;10.724;2023-01-26T14:40:19;9.48;;;6.57;;
77678;SDS011;66835;49.478;10.724;2023-01-26T14:42:46;9.30;;;5.55;;
77678;SDS011;66835;49.478;10.724;2023-01-26T14:45:13;9.73;;;6.28;;
77678;SDS011;66835;49.478;10.724;2023-01-26T14:47:38;9.85;;;5.97;;
77678;SDS011;66835;49.478;10.724;2023-01-26T14:50:05;11.20;;;5.82;;